Zandhoven, Belgium
Current Conditions -  °F | °C
As of 7:20 AM on Wednesday 26 Nov 2014 (Local Time) from EBAW Reporting Station
Clear Clear  
Wind Chill: 36°   Ceiling: Unl
Heat Index: 41°   Visibility: 4mi
Dew Point: 37°   Wind: 7mph
Humidity: 87%   Direction: 90°E
Pressure: 29.94"   Gusts: NA
Location:  51.21°N, 4.66°E
Report Text: EBAW 260620Z 09006KT 7000 NSC 05/03 Q1014 TEMPO 4000 BR
Loading
Personal Weather Stations






























Interactive Weather Map New forecast layout! Learn more

10-Day Weather Forecast

Advertisements
Track Severe Weather on mobile